sensor_id;sensor_type;location;lat;lon;timestamp;pressure;altitude;pressure_sealevel;temperature;humidity
53858;BME280;39763;51.188;6.690;2023-02-21T00:01:28;101737.09;;;10.66;75.78
53858;BME280;39763;51.188;6.690;2023-02-21T00:03:18;101731.69;;;10.72;75.71
53858;BME280;39763;51.188;6.690;2023-02-21T00:05:09;101740.41;;;10.76;75.07
53858;BME280;39763;51.188;6.690;2023-02-21T00:06:59;101731.69;;;10.72;75.35
53858;BME280;39763;51.188;6.690;2023-02-21T00:08:51;101737.81;;;10.74;75.55
53858;BME280;39763;51.188;6.690;2023-02-21T00:10:41;101738.84;;;10.66;75.57
53858;BME280;39763;51.188;6.690;2023-02-21T00:12:31;101750.31;;;10.60;76.08
53858;BME280;39763;51.188;6.690;2023-02-21T00:14:21;101746.69;;;10.67;76.12
53858;BME280;39763;51.188;6.690;2023-02-21T00:16:13;101742.16;;;10.75;75.79
53858;BME280;39763;51.188;6.690;2023-02-21T00:18:03;101742.25;;;10.69;75.62
53858;BME280;39763;51.188;6.690;2023-02-21T00:19:53;101740.47;;;10.71;75.60
53858;BME280;39763;51.188;6.690;2023-02-21T00:21:43;101743.91;;;10.76;75.68
53858;BME280;39763;51.188;6.690;2023-02-21T00:23:33;101742.97;;;10.80;75.55
53858;BME280;39763;51.188;6.690;2023-02-21T00:25:25;101747.31;;;10.81;75.91
53858;BME280;39763;51.188;6.690;2023-02-21T00:27:15;101752.56;;;10.81;75.33
53858;BME280;39763;51.188;6.690;2023-02-21T00:29:05;101750.00;;;10.78;75.46
53858;BME280;39763;51.188;6.690;2023-02-21T00:30:56;101747.31;;;10.81;74.89
53858;BME280;39763;51.188;6.690;2023-02-21T00:32:47;101749.94;;;10.83;75.59
53858;BME280;39763;51.188;6.690;2023-02-21T00:34:37;101756.88;;;10.84;75.26
53858;BME280;39763;51.188;6.690;2023-02-21T00:36:27;101743.72;;;10.85;75.29
53858;BME280;39763;51.188;6.690;2023-02-21T00:38:17;101747.19;;;10.87;75.52
53858;BME280;39763;51.188;6.690;2023-02-21T00:40:10;101751.47;;;10.94;75.22
53858;BME280;39763;51.188;6.690;2023-02-21T00:42:01;101744.53;;;10.90;75.07
53858;BME280;39763;51.188;6.690;2023-02-21T00:43:51;101747.19;;;10.87;75.26
53858;BME280;39763;51.188;6.690;2023-02-21T00:45:42;101746.31;;;10.88;75.02
53858;BME280;39763;51.188;6.690;2023-02-21T00:47:32;101749.78;;;10.90;75.19
53858;BME280;39763;51.188;6.690;2023-02-21T00:49:23;101748.06;;;10.88;75.18
53858;BME280;39763;51.188;6.690;2023-02-21T00:51:13;101746.31;;;10.88;75.12
53858;BME280;39763;51.188;6.690;2023-02-21T00:53:03;101746.25;;;10.91;75.04
53858;BME280;39763;51.188;6.690;2023-02-21T00:54:53;101747.97;;;10.94;75.25
53858;BME280;39763;51.188;6.690;2023-02-21T00:56:43;101744.44;;;10.95;75.39
53858;BME280;39763;51.188;6.690;2023-02-21T00:58:35;101747.03;;;10.97;75.23
53858;BME280;39763;51.188;6.690;2023-02-21T01:00:25;101751.44;;;10.96;75.09
53858;BME280;39763;51.188;6.690;2023-02-21T01:02:15;101741.81;;;10.95;74.74
53858;BME280;39763;51.188;6.690;2023-02-21T01:04:05;101735.66;;;10.96;74.37
53858;BME280;39763;51.188;6.690;2023-02-21T01:05:55;101734.91;;;10.89;75.40
53858;BME280;39763;51.188;6.690;2023-02-21T01:07:46;101733.94;;;10.93;74.73
53858;BME280;39763;51.188;6.690;2023-02-21T01:09:36;101735.00;;;10.83;75.04
53858;BME280;39763;51.188;6.690;2023-02-21T01:11:26;101729.72;;;10.85;75.15
53858;BME280;39763;51.188;6.690;2023-02-21T01:13:17;101735.06;;;10.82;75.38
53858;BME280;39763;51.188;6.690;2023-02-21T01:15:09;101735.81;;;10.87;75.18
53858;BME280;39763;51.188;6.690;2023-02-21T01:16:59;101732.34;;;10.85;75.23
53858;BME280;39763;51.188;6.690;2023-02-21T01:18:49;101735.81;;;10.87;75.64
53858;BME280;39763;51.188;6.690;2023-02-21T01:20:39;101726.16;;;10.87;75.59
53858;BME280;39763;51.188;6.690;2023-02-21T01:22:29;101728.72;;;10.92;75.22
53858;BME280;39763;51.188;6.690;2023-02-21T01:24:19;101722.59;;;10.91;75.25
53858;BME280;39763;51.188;6.690;2023-02-21T01:26:10;101721.78;;;10.88;75.17
53858;BME280;39763;51.188;6.690;2023-02-21T01:28:01;101712.19;;;10.85;75.37
53858;BME280;39763;51.188;6.690;2023-02-21T01:29:51;101706.00;;;10.88;75.52
53858;BME280;39763;51.188;6.690;2023-02-21T01:31:43;101711.16;;;10.94;75.40
53858;BME280;39763;51.188;6.690;2023-02-21T01:33:34;101710.44;;;10.86;75.63
53858;BME280;39763;51.188;6.690;2023-02-21T01:35:27;101720.03;;;10.87;75.22
53858;BME280;39763;51.188;6.690;2023-02-21T01:37:18;101712.28;;;10.81;75.49
53858;BME280;39763;51.188;6.690;2023-02-21T01:39:08;101712.22;;;10.84;75.23
53858;BME280;39763;51.188;6.690;2023-02-21T01:40:58;101712.19;;;10.85;75.28
53858;BME280;39763;51.188;6.690;2023-02-21T01:42:48;101713.94;;;10.85;75.40
53858;BME280;39763;51.188;6.690;2023-02-21T01:44:39;101715.66;;;10.87;75.65
53858;BME280;39763;51.188;6.690;2023-02-21T01:46:29;101716.47;;;10.91;75.48
53858;BME280;39763;51.188;6.690;2023-02-21T01:48:21;101705.09;;;10.90;75.46
53858;BME280;39763;51.188;6.690;2023-02-21T01:50:13;101712.97;;;10.90;75.54
53858;BME280;39763;51.188;6.690;2023-02-21T01:52:06;101702.50;;;10.89;75.47
53858;BME280;39763;51.188;6.690;2023-02-21T01:53:56;101711.19;;;10.92;75.59
53858;BME280;39763;51.188;6.690;2023-02-21T01:55:47;101702.38;;;10.97;75.62
53858;BME280;39763;51.188;6.690;2023-02-21T01:57:38;101703.09;;;11.03;75.49
53858;BME280;39763;51.188;6.690;2023-02-21T01:59:29;101703.19;;;10.99;75.28
53858;BME280;39763;51.188;6.690;2023-02-21T02:01:23;101700.59;;;10.97;75.25
53858;BME280;39763;51.188;6.690;2023-02-21T02:03:15;101696.13;;;11.01;75.16
53858;BME280;39763;51.188;6.690;2023-02-21T02:05:08;101689.09;;;11.01;75.37
53858;BME280;39763;51.188;6.690;2023-02-21T02:06:59;101688.25;;;11.01;75.37
53858;BME280;39763;51.188;6.690;2023-02-21T02:08:49;101693.50;;;11.01;75.45
53858;BME280;39763;51.188;6.690;2023-02-21T02:10:40;101696.94;;;11.04;75.18
53858;BME280;39763;51.188;6.690;2023-02-21T02:14:32;101688.09;;;11.10;74.79
53858;BME280;39763;51.188;6.690;2023-02-21T02:16:09;101685.34;;;11.14;75.21
53858;BME280;39763;51.188;6.690;2023-02-21T02:17:48;101689.72;;;11.14;74.95
53858;BME280;39763;51.188;6.690;2023-02-21T02:19:29;101687.09;;;11.14;74.48
53858;BME280;39763;51.188;6.690;2023-02-21T02:23:06;101688.06;;;11.11;74.63
53858;BME280;39763;51.188;6.690;2023-02-21T02:24:47;101691.59;;;11.09;74.31
53858;BME280;39763;51.188;6.690;2023-02-21T02:26:30;101692.53;;;11.06;74.40
53858;BME280;39763;51.188;6.690;2023-02-21T02:30:19;101694.34;;;11.03;75.13
53858;BME280;39763;51.188;6.690;2023-02-21T02:32:04;101698.59;;;11.10;75.20
53858;BME280;39763;51.188;6.690;2023-02-21T02:33:45;101694.97;;;11.15;74.53
53858;BME280;39763;51.188;6.690;2023-02-21T02:35:23;101697.56;;;11.17;74.71
53858;BME280;39763;51.188;6.690;2023-02-21T02:36:59;101700.22;;;11.15;74.28
53858;BME280;39763;51.188;6.690;2023-02-21T02:38:35;101696.84;;;11.10;74.86
53858;BME280;39763;51.188;6.690;2023-02-21T02:40:10;101684.59;;;11.09;74.71
53858;BME280;39763;51.188;6.690;2023-02-21T02:41:47;101698.53;;;11.13;75.08
53858;BME280;39763;51.188;6.690;2023-02-21T02:43:24;101688.91;;;11.12;74.63
53858;BME280;39763;51.188;6.690;2023-02-21T02:45:02;101694.09;;;11.15;74.83
53858;BME280;39763;51.188;6.690;2023-02-21T02:46:37;101691.44;;;11.16;74.65
53858;BME280;39763;51.188;6.690;2023-02-21T02:48:12;101685.41;;;11.13;74.38
53858;BME280;39763;51.188;6.690;2023-02-21T02:49:44;101686.34;;;11.09;74.95
53858;BME280;39763;51.188;6.690;2023-02-21T02:51:18;101683.75;;;11.07;74.63
53858;BME280;39763;51.188;6.690;2023-02-21T02:52:51;101676.78;;;11.05;74.46
53858;BME280;39763;51.188;6.690;2023-02-21T02:54:25;101682.16;;;10.99;74.85
53858;BME280;39763;51.188;6.690;2023-02-21T02:55:58;101680.50;;;10.94;75.06
53858;BME280;39763;51.188;6.690;2023-02-21T02:57:31;101684.06;;;10.90;74.75
53858;BME280;39763;51.188;6.690;2023-02-21T02:59:12;101679.72;;;10.88;75.29
53858;BME280;39763;51.188;6.690;2023-02-21T03:00:49;101680.69;;;10.84;75.27
53858;BME280;39763;51.188;6.690;2023-02-21T03:02:27;101664.88;;;10.85;75.41
53858;BME280;39763;51.188;6.690;2023-02-21T03:04:11;101664.00;;;10.86;75.25
53858;BME280;39763;51.188;6.690;2023-02-21T03:05:56;101672.91;;;10.79;75.60
53858;BME280;39763;51.188;6.690;2023-02-21T03:07:36;101676.44;;;10.78;75.96
53858;BME280;39763;51.188;6.690;2023-02-21T03:09:13;101667.69;;;10.76;75.94
53858;BME280;39763;51.188;6.690;2023-02-21T03:10:51;101667.63;;;10.81;76.06
53858;BME280;39763;51.188;6.690;2023-02-21T03:12:28;101660.53;;;10.84;75.90
53858;BME280;39763;51.188;6.690;2023-02-21T03:14:05;101679.00;;;10.81;76.05
53858;BME280;39763;51.188;6.690;2023-02-21T03:15:39;101662.28;;;10.84;75.95
53858;BME280;39763;51.188;6.690;2023-02-21T03:17:14;101668.38;;;10.86;76.04
53858;BME280;39763;51.188;6.690;2023-02-21T03:18:51;101658.69;;;10.89;75.92
53858;BME280;39763;51.188;6.690;2023-02-21T03:20:25;101664.81;;;10.90;76.00
53858;BME280;39763;51.188;6.690;2023-02-21T03:21:59;101661.25;;;10.92;75.53
53858;BME280;39763;51.188;6.690;2023-02-21T03:23:33;101664.81;;;10.90;75.54
53858;BME280;39763;51.188;6.690;2023-02-21T03:25:05;101665.59;;;10.95;75.65
53858;BME280;39763;51.188;6.690;2023-02-21T03:26:41;101661.13;;;10.99;75.30
53858;BME280;39763;51.188;6.690;2023-02-21T03:28:48;101658.66;;;10.91;75.26
53858;BME280;39763;51.188;6.690;2023-02-21T03:30:22;101661.34;;;10.88;75.40
53858;BME280;39763;51.188;6.690;2023-02-21T03:31:55;101652.56;;;10.89;76.00
53858;BME280;39763;51.188;6.690;2023-02-21T03:33:30;101657.75;;;10.92;75.43
53858;BME280;39763;51.188;6.690;2023-02-21T03:35:02;101662.06;;;10.96;75.52
53858;BME280;39763;51.188;6.690;2023-02-21T03:36:35;101664.66;;;10.98;75.19
53858;BME280;39763;51.188;6.690;2023-02-21T03:38:07;101666.50;;;10.92;75.85
53858;BME280;39763;51.188;6.690;2023-02-21T03:39:41;101664.69;;;10.96;75.63
53858;BME280;39763;51.188;6.690;2023-02-21T03:41:13;101663.00;;;10.93;75.22
53858;BME280;39763;51.188;6.690;2023-02-21T03:42:46;101669.09;;;10.95;75.61
53858;BME280;39763;51.188;6.690;2023-02-21T03:44:20;101666.38;;;10.99;74.80
53858;BME280;39763;51.188;6.690;2023-02-21T03:45:52;101671.72;;;10.95;74.81
53858;BME280;39763;51.188;6.690;2023-02-21T03:47:24;101663.97;;;10.88;75.14
53858;BME280;39763;51.188;6.690;2023-02-21T03:48:55;101664.13;;;10.80;75.06
53858;BME280;39763;51.188;6.690;2023-02-21T03:50:31;101675.59;;;10.75;75.68
53858;BME280;39763;51.188;6.690;2023-02-21T03:52:03;101665.19;;;10.70;75.60
53858;BME280;39763;51.188;6.690;2023-02-21T03:53:35;101671.47;;;10.62;76.27
53858;BME280;39763;51.188;6.690;2023-02-21T03:55:09;101674.16;;;10.58;76.27
53858;BME280;39763;51.188;6.690;2023-02-21T03:56:40;101676.91;;;10.52;76.64
53858;BME280;39763;51.188;6.690;2023-02-21T03:58:38;101677.69;;;10.57;76.89
53858;BME280;39763;51.188;6.690;2023-02-21T04:00:11;101680.25;;;10.60;76.57
53858;BME280;39763;51.188;6.690;2023-02-21T04:01:46;101682.94;;;10.57;76.52
53858;BME280;39763;51.188;6.690;2023-02-21T04:03:19;101672.41;;;10.57;76.84
53858;BME280;39763;51.188;6.690;2023-02-21T04:04:58;101673.41;;;10.53;76.56
53858;BME280;39763;51.188;6.690;2023-02-21T04:06:30;101674.22;;;10.54;77.03
53858;BME280;39763;51.188;6.690;2023-02-21T04:08:03;101671.56;;;10.57;76.84
53858;BME280;39763;51.188;6.690;2023-02-21T04:09:37;101669.78;;;10.57;77.13
53858;BME280;39763;51.188;6.690;2023-02-21T04:11:12;101664.50;;;10.59;76.80
53858;BME280;39763;51.188;6.690;2023-02-21T04:12:47;101664.50;;;10.59;76.69
53858;BME280;39763;51.188;6.690;2023-02-21T04:14:20;101674.16;;;10.58;76.75
53858;BME280;39763;51.188;6.690;2023-02-21T04:15:52;101668.03;;;10.58;76.79
53858;BME280;39763;51.188;6.690;2023-02-21T04:17:25;101673.25;;;10.59;76.55
53858;BME280;39763;51.188;6.690;2023-02-21T04:18:58;101672.41;;;10.59;76.83
53858;BME280;39763;51.188;6.690;2023-02-21T04:20:29;101657.50;;;10.59;76.73
53858;BME280;39763;51.188;6.690;2023-02-21T04:22:02;101661.00;;;10.60;77.13
53858;BME280;39763;51.188;6.690;2023-02-21T04:23:35;101653.09;;;10.62;77.08
53858;BME280;39763;51.188;6.690;2023-02-21T04:25:08;101658.31;;;10.63;76.86
53858;BME280;39763;51.188;6.690;2023-02-21T04:26:47;101665.34;;;10.61;76.69
53858;BME280;39763;51.188;6.690;2023-02-21T04:28:18;101660.16;;;10.58;76.96
53858;BME280;39763;51.188;6.690;2023-02-21T04:29:51;101659.25;;;10.59;77.38
53858;BME280;39763;51.188;6.690;2023-02-21T04:31:23;101660.91;;;10.66;77.34
53858;BME280;39763;51.188;6.690;2023-02-21T04:32:55;101655.56;;;10.69;76.80
53858;BME280;39763;51.188;6.690;2023-02-21T04:34:27;101649.50;;;10.67;76.78
53858;BME280;39763;51.188;6.690;2023-02-21T04:35:59;101658.28;;;10.66;76.92
53858;BME280;39763;51.188;6.690;2023-02-21T04:37:44;101659.13;;;10.67;77.06
53858;BME280;39763;51.188;6.690;2023-02-21T04:39:16;101645.03;;;10.71;76.76
53858;BME280;39763;51.188;6.690;2023-02-21T04:40:48;101662.56;;;10.69;76.96
53858;BME280;39763;51.188;6.690;2023-02-21T04:42:21;101661.78;;;10.65;76.73
53858;BME280;39763;51.188;6.690;2023-02-21T04:43:52;101660.91;;;10.65;76.78
53858;BME280;39763;51.188;6.690;2023-02-21T04:45:24;101664.47;;;10.62;76.95
53858;BME280;39763;51.188;6.690;2023-02-21T04:46:57;101656.63;;;10.59;76.97
53858;BME280;39763;51.188;6.690;2023-02-21T04:48:29;101660.19;;;10.55;76.71
53858;BME280;39763;51.188;6.690;2023-02-21T04:50:00;101660.28;;;10.52;76.97
53858;BME280;39763;51.188;6.690;2023-02-21T04:51:32;101660.28;;;10.52;77.04
53858;BME280;39763;51.188;6.690;2023-02-21T04:53:04;101652.50;;;10.46;77.32
53858;BME280;39763;51.188;6.690;2023-02-21T04:54:35;101662.22;;;10.41;77.80
53858;BME280;39763;51.188;6.690;2023-02-21T04:56:07;101657.78;;;10.44;77.96
53858;BME280;39763;51.188;6.690;2023-02-21T04:57:40;101656.81;;;10.50;77.90
53858;BME280;39763;51.188;6.690;2023-02-21T04:59:11;101656.84;;;10.48;77.58
53858;BME280;39763;51.188;6.690;2023-02-21T05:00:43;101661.19;;;10.49;77.74
53858;BME280;39763;51.188;6.690;2023-02-21T05:02:15;101659.44;;;10.50;77.58
53858;BME280;39763;51.188;6.690;2023-02-21T05:03:46;101658.56;;;10.49;77.93
53858;BME280;39763;51.188;6.690;2023-02-21T05:05:18;101665.53;;;10.52;77.88
53858;BME280;39763;51.188;6.690;2023-02-21T05:06:50;101659.41;;;10.51;77.80
53858;BME280;39763;51.188;6.690;2023-02-21T05:08:21;101660.25;;;10.53;77.63
53858;BME280;39763;51.188;6.690;2023-02-21T05:09:58;101661.09;;;10.54;78.07
53858;BME280;39763;51.188;6.690;2023-02-21T05:11:31;101660.19;;;10.56;78.01
53858;BME280;39763;51.188;6.690;2023-02-21T05:13:04;101660.06;;;10.64;78.03
53858;BME280;39763;51.188;6.690;2023-02-21T05:14:36;101656.50;;;10.67;77.61
53858;BME280;39763;51.188;6.690;2023-02-21T05:16:08;101667.94;;;10.64;77.02
53858;BME280;39763;51.188;6.690;2023-02-21T05:17:40;101665.38;;;10.59;76.92
53858;BME280;39763;51.188;6.690;2023-02-21T05:19:11;101660.34;;;10.49;77.26
53858;BME280;39763;51.188;6.690;2023-02-21T05:20:43;101663.06;;;10.41;77.69
53858;BME280;39763;51.188;6.690;2023-02-21T05:22:14;101662.22;;;10.41;77.87
53858;BME280;39763;51.188;6.690;2023-02-21T05:23:50;101670.19;;;10.36;78.25
53858;BME280;39763;51.188;6.690;2023-02-21T05:25:28;101667.56;;;10.36;78.61
53858;BME280;39763;51.188;6.690;2023-02-21T05:26:59;101670.09;;;10.41;78.78
53858;BME280;39763;51.188;6.690;2023-02-21T05:28:32;101670.91;;;10.44;78.29
53858;BME280;39763;51.188;6.690;2023-02-21T05:30:04;101682.22;;;10.48;78.60
53858;BME280;39763;51.188;6.690;2023-02-21T05:31:36;101670.00;;;10.47;78.43
53858;BME280;39763;51.188;6.690;2023-02-21T05:33:08;101677.84;;;10.48;78.08
53858;BME280;39763;51.188;6.690;2023-02-21T05:34:39;101684.81;;;10.51;78.02
53858;BME280;39763;51.188;6.690;2023-02-21T05:36:14;101677.84;;;10.48;78.06
53858;BME280;39763;51.188;6.690;2023-02-21T05:37:48;101669.97;;;10.48;78.15
53858;BME280;39763;51.188;6.690;2023-02-21T05:39:19;101676.06;;;10.50;78.10
53858;BME280;39763;51.188;6.690;2023-02-21T05:40:51;101666.44;;;10.49;78.04
53858;BME280;39763;51.188;6.690;2023-02-21T05:42:23;101669.13;;;10.46;78.29
53858;BME280;39763;51.188;6.690;2023-02-21T05:43:56;101664.75;;;10.47;78.41
53858;BME280;39763;51.188;6.690;2023-02-21T05:45:27;101662.09;;;10.48;78.40
53858;BME280;39763;51.188;6.690;2023-02-21T05:46:59;101662.97;;;10.49;78.54
53858;BME280;39763;51.188;6.690;2023-02-21T05:48:30;101662.94;;;10.50;78.42
53858;BME280;39763;51.188;6.690;2023-02-21T05:50:02;101669.03;;;10.52;78.43
53858;BME280;39763;51.188;6.690;2023-02-21T05:51:34;101671.56;;;10.55;78.31
53858;BME280;39763;51.188;6.690;2023-02-21T05:53:07;101670.66;;;10.58;78.24
53858;BME280;39763;51.188;6.690;2023-02-21T05:54:40;101668.91;;;10.58;78.22
53858;BME280;39763;51.188;6.690;2023-02-21T05:56:12;101667.19;;;10.56;78.17
53858;BME280;39763;51.188;6.690;2023-02-21T05:57:44;101661.88;;;10.59;78.42
53858;BME280;39763;51.188;6.690;2023-02-21T05:59:18;101668.81;;;10.65;78.08
53858;BME280;39763;51.188;6.690;2023-02-21T06:00:50;101670.63;;;10.59;77.84
53858;BME280;39763;51.188;6.690;2023-02-21T06:02:22;101679.44;;;10.57;78.04
53858;BME280;39763;51.188;6.690;2023-02-21T06:03:54;101667.28;;;10.53;77.96
53858;BME280;39763;51.188;6.690;2023-02-21T06:05:26;101676.03;;;10.52;78.41
53858;BME280;39763;51.188;6.690;2023-02-21T06:06:57;101671.66;;;10.52;78.39
53858;BME280;39763;51.188;6.690;2023-02-21T06:08:29;101673.50;;;10.47;78.37
53858;BME280;39763;51.188;6.690;2023-02-21T06:10:00;101668.19;;;10.50;78.48
53858;BME280;39763;51.188;6.690;2023-02-21T06:11:33;101670.69;;;10.56;78.28
53858;BME280;39763;51.188;6.690;2023-02-21T06:13:05;101666.31;;;10.55;78.27
53858;BME280;39763;51.188;6.690;2023-02-21T06:14:37;101673.47;;;10.49;77.83
53858;BME280;39763;51.188;6.690;2023-02-21T06:16:09;101661.31;;;10.42;78.32
53858;BME280;39763;51.188;6.690;2023-02-21T06:17:41;101655.34;;;10.34;78.10
53858;BME280;39763;51.188;6.690;2023-02-21T06:19:14;101656.28;;;10.30;78.76
53858;BME280;39763;51.188;6.690;2023-02-21T06:20:46;101658.06;;;10.28;78.81
53858;BME280;39763;51.188;6.690;2023-02-21T06:22:20;101656.34;;;10.25;79.16
53858;BME280;39763;51.188;6.690;2023-02-21T06:23:52;101658.09;;;10.26;78.87
53858;BME280;39763;51.188;6.690;2023-02-21T06:25:23;101664.28;;;10.23;79.43
53858;BME280;39763;51.188;6.690;2023-02-21T06:26:55;101666.94;;;10.22;79.28
53858;BME280;39763;51.188;6.690;2023-02-21T06:28:27;101666.97;;;10.19;79.47
53858;BME280;39763;51.188;6.690;2023-02-21T06:30:01;101662.59;;;10.16;79.22
53858;BME280;39763;51.188;6.690;2023-02-21T06:31:33;101669.66;;;10.13;79.42
53858;BME280;39763;51.188;6.690;2023-02-21T06:33:06;101663.53;;;10.12;79.47
53858;BME280;39763;51.188;6.690;2023-02-21T06:34:38;101669.69;;;10.10;79.64
53858;BME280;39763;51.188;6.690;2023-02-21T06:36:11;101667.19;;;10.04;79.69
53858;BME280;39763;51.188;6.690;2023-02-21T06:37:42;101673.31;;;10.04;80.37
53858;BME280;39763;51.188;6.690;2023-02-21T06:39:14;101668.97;;;10.02;80.08
53858;BME280;39763;51.188;6.690;2023-02-21T06:40:46;101663.72;;;10.02;80.39
53858;BME280;39763;51.188;6.690;2023-02-21T06:42:17;101670.72;;;10.01;80.34
53858;BME280;39763;51.188;6.690;2023-02-21T06:43:49;101665.47;;;10.01;80.55
53858;BME280;39763;51.188;6.690;2023-02-21T06:45:22;101665.44;;;10.04;81.03
53858;BME280;39763;51.188;6.690;2023-02-21T06:46:54;101665.41;;;10.06;80.65
53858;BME280;39763;51.188;6.690;2023-02-21T06:48:25;101669.78;;;10.05;80.53
53858;BME280;39763;51.188;6.690;2023-02-21T06:49:57;101663.69;;;10.03;80.60
53858;BME280;39763;51.188;6.690;2023-02-21T06:51:32;101661.94;;;10.04;81.01
53858;BME280;39763;51.188;6.690;2023-02-21T06:53:04;101666.34;;;10.02;81.05
53858;BME280;39763;51.188;6.690;2023-02-21T06:54:35;101668.91;;;10.06;81.13
53858;BME280;39763;51.188;6.690;2023-02-21T06:56:07;101673.16;;;10.13;81.01
53858;BME280;39763;51.188;6.690;2023-02-21T06:57:39;101665.19;;;10.21;80.50
53858;BME280;39763;51.188;6.690;2023-02-21T06:59:12;101665.13;;;10.24;80.47
53858;BME280;39763;51.188;6.690;2023-02-21T07:00:45;101663.34;;;10.26;80.10
53858;BME280;39763;51.188;6.690;2023-02-21T07:02:17;101660.66;;;10.31;79.91
53858;BME280;39763;51.188;6.690;2023-02-21T07:03:49;101661.53;;;10.30;79.79
53858;BME280;39763;51.188;6.690;2023-02-21T07:05:21;101667.69;;;10.29;80.31
53858;BME280;39763;51.188;6.690;2023-02-21T07:06:53;101672.84;;;10.35;80.45
53858;BME280;39763;51.188;6.690;2023-02-21T07:08:24;101673.59;;;10.41;79.91
53858;BME280;39763;51.188;6.690;2023-02-21T07:09:56;101675.25;;;10.47;79.89
53858;BME280;39763;51.188;6.690;2023-02-21T07:11:29;101659.47;;;10.48;79.36
53858;BME280;39763;51.188;6.690;2023-02-21T07:13:01;101666.50;;;10.46;79.17
53858;BME280;39763;51.188;6.690;2023-02-21T07:14:32;101661.31;;;10.42;78.92
53858;BME280;39763;51.188;6.690;2023-02-21T07:16:06;101670.19;;;10.36;79.12
53858;BME280;39763;51.188;6.690;2023-02-21T07:17:37;101676.34;;;10.34;79.61
53858;BME280;39763;51.188;6.690;2023-02-21T07:19:10;101680.81;;;10.27;79.49
53858;BME280;39763;51.188;6.690;2023-02-21T07:20:46;101680.81;;;10.27;79.77
53858;BME280;39763;51.188;6.690;2023-02-21T07:22:17;101686.91;;;10.31;79.98
53858;BME280;39763;51.188;6.690;2023-02-21T07:23:56;101680.75;;;10.32;80.05
53858;BME280;39763;51.188;6.690;2023-02-21T07:25:27;101677.22;;;10.34;79.73
53858;BME280;39763;51.188;6.690;2023-02-21T07:27:03;101683.22;;;10.41;79.82
53858;BME280;39763;51.188;6.690;2023-02-21T07:28:35;101677.91;;;10.45;79.74
53858;BME280;39763;51.188;6.690;2023-02-21T07:30:07;101674.34;;;10.49;79.62
53858;BME280;39763;51.188;6.690;2023-02-21T07:31:40;101686.44;;;10.56;79.98
53858;BME280;39763;51.188;6.690;2023-02-21T07:33:11;101674.09;;;10.62;79.25
53858;BME280;39763;51.188;6.690;2023-02-21T07:34:43;101679.28;;;10.66;79.28
53858;BME280;39763;51.188;6.690;2023-02-21T07:36:15;101679.16;;;10.72;79.31
53858;BME280;39763;51.188;6.690;2023-02-21T07:37:47;101679.97;;;10.76;78.97
53858;BME280;39763;51.188;6.690;2023-02-21T07:39:18;101682.53;;;10.80;79.03
53858;BME280;39763;51.188;6.690;2023-02-21T07:40:50;101687.00;;;10.75;78.53
53858;BME280;39763;51.188;6.690;2023-02-21T07:42:24;101683.53;;;10.72;78.55
53858;BME280;39763;51.188;6.690;2023-02-21T07:43:56;101686.97;;;10.77;78.64
53858;BME280;39763;51.188;6.690;2023-02-21T07:45:27;101686.81;;;10.84;78.60
53858;BME280;39763;51.188;6.690;2023-02-21T07:47:00;101678.06;;;10.84;78.18
53858;BME280;39763;51.188;6.690;2023-02-21T07:48:32;101681.53;;;10.84;77.97
53858;BME280;39763;51.188;6.690;2023-02-21T07:50:04;101681.63;;;10.81;77.68
53858;BME280;39763;51.188;6.690;2023-02-21T07:51:36;101685.28;;;10.73;78.06
53858;BME280;39763;51.188;6.690;2023-02-21T07:53:08;101690.53;;;10.73;78.52
53858;BME280;39763;51.188;6.690;2023-02-21T07:54:41;101689.63;;;10.74;78.95
53858;BME280;39763;51.188;6.690;2023-02-21T07:56:13;101694.81;;;10.78;78.80
53858;BME280;39763;51.188;6.690;2023-02-21T07:57:44;101688.56;;;10.84;78.53
53858;BME280;39763;51.188;6.690;2023-02-21T07:59:16;101691.16;;;10.85;78.52
53858;BME280;39763;51.188;6.690;2023-02-21T08:00:48;101686.81;;;10.84;77.95
53858;BME280;39763;51.188;6.690;2023-02-21T08:02:21;101691.28;;;10.81;78.23
53858;BME280;39763;51.188;6.690;2023-02-21T08:03:53;101686.91;;;10.80;78.17
53858;BME280;39763;51.188;6.690;2023-02-21T08:05:24;101696.56;;;10.79;78.39
53858;BME280;39763;51.188;6.690;2023-02-21T08:06:57;101689.44;;;10.84;78.19
53858;BME280;39763;51.188;6.690;2023-02-21T08:08:29;101691.16;;;10.85;78.30
53858;BME280;39763;51.188;6.690;2023-02-21T08:10:01;101688.53;;;10.85;78.27
53858;BME280;39763;51.188;6.690;2023-02-21T08:11:32;101698.19;;;10.85;78.20
53858;BME280;39763;51.188;6.690;2023-02-21T08:13:06;101700.84;;;10.83;78.01
53858;BME280;39763;51.188;6.690;2023-02-21T08:14:38;101691.16;;;10.85;78.25
53858;BME280;39763;51.188;6.690;2023-02-21T08:16:10;101689.34;;;10.89;78.24
53858;BME280;39763;51.188;6.690;2023-02-21T08:17:43;101696.31;;;10.91;77.80
53858;BME280;39763;51.188;6.690;2023-02-21T08:19:15;101688.38;;;10.94;77.66
53858;BME280;39763;51.188;6.690;2023-02-21T08:20:46;101708.56;;;10.92;77.69
53858;BME280;39763;51.188;6.690;2023-02-21T08:22:18;101705.13;;;10.89;77.80
53858;BME280;39763;51.188;6.690;2023-02-21T08:23:51;101703.41;;;10.86;78.02
53858;BME280;39763;51.188;6.690;2023-02-21T08:25:24;101696.41;;;10.85;77.63
53858;BME280;39763;51.188;6.690;2023-02-21T08:26:56;101699.94;;;10.84;77.88
53858;BME280;39763;51.188;6.690;2023-02-21T08:28:27;101699.88;;;10.87;78.03
53858;BME280;39763;51.188;6.690;2023-02-21T08:29:59;101694.59;;;10.90;77.77
53858;BME280;39763;51.188;6.690;2023-02-21T08:31:33;101693.69;;;10.91;77.87
53858;BME280;39763;51.188;6.690;2023-02-21T08:33:06;101696.38;;;10.88;77.71
53858;BME280;39763;51.188;6.690;2023-02-21T08:34:37;101698.19;;;10.85;77.81
53858;BME280;39763;51.188;6.690;2023-02-21T08:36:09;101694.69;;;10.84;77.95